1932 NOT_NAMED (1932330N09137)


IBTrACS version v04r00. Visit IBTrACS website for data access.
Please direct all questions to the IBTrACS Q and A forum

Storm track - Intensity - Wind Radii - Intensity Data - Source Data - All data

Summary Information

Storm ID 1932330N09137
Start Nov 24 22Z
Landfall Nov 27 12Z, Nov 28 00Z, Nov 28 22Z
End Nov 30 22Z
ATCF IDs
Track status Best track data.

Storm track plot

Map of storm track

Intensity plots

No Intensity information for this storm


Radial wind information

No radial wind information for this storm


Position and Intensity Table

BASIN ISO_TIME_________ NATURE LAT LON
degrees north degrees east
WP 1932-11-24 22:00:00 NR 8.50 136.80
WP 1932-11-25 00:00:00 NR 8.52 136.50
WP 03:00:00 NR 8.55 136.06
WP 06:00:00 NR 8.58 135.63
WP 09:00:00 NR 8.60 135.23
WP 10:00:00 NR 8.60 135.10
WP 12:00:00 NR 8.60 134.85
WP 15:00:00 NR 8.60 134.48
WP 18:00:00 NR 8.60 134.10
WP 21:00:00 NR 8.60 133.66
WP 22:00:00 NR 8.60 133.50
WP 1932-11-26 00:00:00 NR 8.60 133.14
WP 03:00:00 NR 8.61 132.54
WP 06:00:00 NR 8.63 131.89
WP 09:00:00 NR 8.68 131.22
WP 10:00:00 NR 8.70 131.00
WP 12:00:00 NR 8.75 130.58
WP 15:00:00 NR 8.84 129.94
WP 18:00:00 NR 8.97 129.30
WP 21:00:00 NR 9.14 128.63
WP 22:00:00 NR 9.20 128.40
WP 1932-11-27 00:00:00 NR 9.29 127.89
WP 03:00:00 NR 9.45 127.11
WP 06:00:00 NR 9.68 126.36
WP 09:00:00 NR 10.04 125.69
WP 10:00:00 NR 10.20 125.50
WP 12:00:00 NR 10.61 125.17
WP 15:00:00 NR 11.34 124.78
WP 18:00:00 NR 12.15 124.48
WP 21:00:00 NR 12.95 124.26
WP 22:00:00 NR 13.20 124.20
WP 1932-11-28 00:00:00 NR 13.62 124.09
WP 03:00:00 NR 14.20 123.98
WP 06:00:00 NR 14.73 123.88
WP 09:00:00 NR 15.24 123.76
WP 10:00:00 NR 15.40 123.70
WP 12:00:00 NR 15.75 123.54
WP 15:00:00 NR 16.27 123.26
WP 18:00:00 NR 16.75 122.92
WP 21:00:00 NR 17.17 122.54
WP 22:00:00 NR 17.30 122.40
WP 1932-11-29 00:00:00 NR 17.55 122.14
WP 03:00:00 NR 17.89 121.70
WP 06:00:00 NR 18.15 121.22
WP 09:00:00 NR 18.35 120.69
WP 10:00:00 NR 18.40 120.50
WP 12:00:00 NR 18.49 120.07
WP 15:00:00 NR 18.55 119.39
WP 18:00:00 NR 18.55 118.71
WP 21:00:00 NR 18.52 118.08
WP 22:00:00 NR 18.50 117.90
WP 1932-11-30 00:00:00 NR 18.48 117.61
WP 03:00:00 NR 18.44 117.26
WP 06:00:00 NR 18.36 116.95
WP 09:00:00 NR 18.25 116.62
WP 10:00:00 NR 18.20 116.50
WP 12:00:00 NR 18.09 116.23
WP 15:00:00 NR 17.91 115.76
WP 18:00:00 NR 17.70 115.24
WP 21:00:00 NR 17.48 114.69
WP 22:00:00 NR 17.40 114.50

Source Information

Agency Information
USA
TOKYO
CMA
HKO
NEWDELHI
REUNION
BOM
NADI
WELLINGTON
DS824
TD9636 cons_worldwide_trop_cyclone_18710101-19891231-003:Line=9206
TD9635
NEUMANN
MLC

All available IBTrACS Data

SEASON BASIN SUBBASIN ISO_TIME_________ NATURE LAT LON DIST2LAND LANDFALL IFLAG USA SSHS TD9636 LAT TD9636 LON TD9636 STAGE STORM SPEED STORM DIR
Year degrees north degrees east km km 1 degrees north degrees east kts degrees
1932 WP MM 1932-11-24 22:00:00 NR 8.50 136.80 1039 1035 __________O___ -1 8.50 136.80 7 9 274
1932 WP MM 1932-11-25 00:00:00 NR 8.52 136.50 1035 1032 __________P___ -1 8.52 136.50 7 9 274
1932 WP MM 03:00:00 NR 8.55 136.06 1043 996 __________P___ -1 8.55 136.06 7 9 274
1932 WP MM 06:00:00 NR 8.58 135.63 996 952 __________P___ -1 8.58 135.63 7 8 273
1932 WP MM 09:00:00 NR 8.60 135.23 952 941 __________P___ -1 8.60 135.23 7 8 272
1932 WP MM 10:00:00 NR 8.60 135.10 941 919 __________O___ -1 8.60 135.10 7 7 271
1932 WP MM 12:00:00 NR 8.60 134.85 919 876 __________P___ -1 8.60 134.85 7 7 270
1932 WP MM 15:00:00 NR 8.60 134.48 876 832 __________P___ -1 8.60 134.48 7 7 270
1932 WP MM 18:00:00 NR 8.60 134.10 832 788 __________P___ -1 8.60 134.10 7 8 270
1932 WP MM 21:00:00 NR 8.60 133.66 788 766 __________P___ -1 8.60 133.66 7 9 270
1932 WP MM 22:00:00 NR 8.60 133.50 766 723 __________O___ -1 8.60 133.50 7 10 270
1932 WP MM 1932-11-26 00:00:00 NR 8.60 133.14 723 657 __________P___ -1 8.60 133.14 7 11 270
1932 WP MM 03:00:00 NR 8.61 132.54 657 592 __________P___ -1 8.61 132.54 7 12 271
1932 WP MM 06:00:00 NR 8.63 131.89 592 518 __________P___ -1 8.63 131.89 7 13 273
1932 WP MM 09:00:00 NR 8.68 131.22 518 497 __________P___ -1 8.68 131.22 7 13 275
1932 WP MM 10:00:00 NR 8.70 131.00 497 454 __________O___ -1 8.70 131.00 7 13 276
1932 WP MM 12:00:00 NR 8.75 130.58 454 383 __________P___ -1 8.75 130.58 7 13 278
1932 WP MM 15:00:00 NR 8.84 129.94 383 328 __________P___ -1 8.84 129.94 7 13 280
1932 WP MM 18:00:00 NR 8.97 129.30 328 255 __________P___ -1 8.97 129.30 7 13 283
1932 WP MM 21:00:00 NR 9.14 128.63 255 235 __________P___ -1 9.14 128.63 7 14 284
1932 WP MM 22:00:00 NR 9.20 128.40 235 184 __________O___ -1 9.20 128.40 7 15 282
1932 WP MM 1932-11-27 00:00:00 NR 9.29 127.89 184 101 __________P___ -1 9.29 127.89 7 16 281
1932 WP MM 03:00:00 NR 9.45 127.11 101 45 __________P___ -1 9.45 127.11 7 16 285
1932 WP MM 06:00:00 NR 9.68 126.36 49 31 __________P___ -1 9.68 126.36 7 15 293
1932 WP MM 09:00:00 NR 10.04 125.69 35 24 __________P___ -1 10.04 125.69 7 15 302
1932 WP MM 10:00:00 NR 10.20 125.50 24 0 __________O___ -1 10.20 125.50 7 15 318
1932 WP MM 12:00:00 NR 10.61 125.17 0 0 __________P___ -1 10.61 125.17 7 16 328
1932 WP MM 15:00:00 NR 11.34 124.78 0 0 __________P___ -1 11.34 124.78 7 17 336
1932 WP MM 18:00:00 NR 12.15 124.48 0 0 __________P___ -1 12.15 124.48 7 17 343
1932 WP MM 21:00:00 NR 12.95 124.26 21 10 __________P___ -1 12.95 124.26 7 16 345
1932 WP MM 22:00:00 NR 13.20 124.20 24 0 __________O___ -1 13.20 124.20 7 14 346
1932 WP MM 1932-11-28 00:00:00 NR 13.62 124.09 0 0 __________P___ -1 13.62 124.09 7 12 348
1932 WP MM 03:00:00 NR 14.20 123.98 24 24 __________P___ -1 14.20 123.98 7 11 350
1932 WP MM 06:00:00 NR 14.73 123.88 81 92 __________P___ -1 14.73 123.88 7 11 348
1932 WP MM 09:00:00 NR 15.24 123.76 138 150 __________P___ -1 15.24 123.76 7 10 345
1932 WP MM 10:00:00 NR 15.40 123.70 159 146 __________O___ -1 15.40 123.70 7 11 338
1932 WP MM 12:00:00 NR 15.75 123.54 146 108 __________P___ -1 15.75 123.54 7 12 334
1932 WP MM 15:00:00 NR 16.27 123.26 108 48 __________P___ -1 16.27 123.26 7 12 329
1932 WP MM 18:00:00 NR 16.75 122.92 48 10 __________P___ -1 16.75 122.92 7 11 323
1932 WP MM 21:00:00 NR 17.17 122.54 10 0 __________P___ -1 17.17 122.54 7 11 318
1932 WP MM 22:00:00 NR 17.30 122.40 0 0 __________O___ -1 17.30 122.40 7 11 315
1932 WP MM 1932-11-29 00:00:00 NR 17.55 122.14 0 0 __________P___ -1 17.55 122.14 7 11 312
1932 WP MM 03:00:00 NR 17.89 121.70 0 0 __________P___ -1 17.89 121.70 7 11 305
1932 WP MM 06:00:00 NR 18.15 121.22 0 0 __________P___ -1 18.15 121.22 7 11 296
1932 WP MM 09:00:00 NR 18.35 120.69 0 0 __________P___ -1 18.35 120.69 7 11 290
1932 WP MM 10:00:00 NR 18.40 120.50 10 10 __________O___ -1 18.40 120.50 3 12 283
1932 WP MM 12:00:00 NR 18.49 120.07 53 64 __________P___ -1 18.49 120.07 3 13 278
1932 WP MM 15:00:00 NR 18.55 119.39 124 128 __________P___ -1 18.55 119.39 3 13 273
1932 WP MM 18:00:00 NR 18.55 118.71 198 198 __________P___ -1 18.55 118.71 3 12 269
1932 WP MM 21:00:00 NR 18.52 118.08 253 253 __________P___ -1 18.52 118.08 3 12 266
1932 WP MM 22:00:00 NR 18.50 117.90 273 273 __________O___ -1 18.50 117.90 4 9 266
1932 WP MM 1932-11-30 00:00:00 NR 18.48 117.61 302 302 __________P___ -1 18.48 117.61 4 7 264
1932 WP MM 03:00:00 NR 18.44 117.26 329 339 __________P___ -1 18.44 117.26 4 6 259
1932 WP MM 06:00:00 NR 18.36 116.95 370 368 __________P___ -1 18.36 116.95 4 6 252
1932 WP MM 09:00:00 NR 18.25 116.62 397 397 __________P___ -1 18.25 116.62 4 7 249
1932 WP MM 10:00:00 NR 18.20 116.50 407 407 __________O___ -1 18.20 116.50 4 8 248
1932 WP MM 12:00:00 NR 18.09 116.23 432 432 __________P___ -1 18.09 116.23 4 9 248
1932 WP MM 15:00:00 NR 17.91 115.76 461 471 __________P___ -1 17.91 115.76 4 10 247
1932 WP MM 18:00:00 NR 17.70 115.24 490 455 __________P___ -1 17.70 115.24 4 11 247
1932 WP MM 21:00:00 NR 17.48 114.69 455 443 __________P___ -1 17.48 114.69 4 11 247
1932 WP MM 22:00:00 NR 17.40 114.50 443 __________O___ -1 17.40 114.50 7 12 247